TimeEST,TemperatureF,Dew PointF,Humidity,Sea Level PressureIn,VisibilityMPH,Wind Direction,Wind SpeedMPH,Gust SpeedMPH,PrecipitationIn,Events,Conditions,WindDirDegrees,DateUTC
12:03 AM,41.0,39.2,93,29.90,3.0,Calm,Calm,-,0.00,Rain,Light Rain,0,2012-11-07 05:03:00
12:22 AM,41.0,39.2,93,29.90,2.5,Calm,Calm,-,0.00,Rain,Light Rain,0,2012-11-07 05:22:00
12:44 AM,41.0,39.2,93,29.89,3.0,Calm,Calm,-,0.00,Rain,Light Rain,0,2012-11-07 05:44:00
12:53 AM,41.0,39.0,93,29.90,3.0,Calm,Calm,-,0.00,Rain,Light Rain,0,2012-11-07 05:53:00
1:32 AM,41.0,39.2,93,29.89,2.5,Calm,Calm,-,0.01,Rain,Light Rain,0,2012-11-07 06:32:00
1:53 AM,41.0,39.0,93,29.89,2.0,Calm,Calm,-,0.01,Rain,Light Rain,0,2012-11-07 06:53:00
2:53 AM,39.9,39.0,97,29.89,2.5,Calm,Calm,-,0.01,Rain,Light Rain,0,2012-11-07 07:53:00
3:53 AM,39.9,39.0,97,29.88,2.5,Calm,Calm,-,0.00,,Overcast,0,2012-11-07 08:53:00
4:53 AM,39.9,39.0,97,29.89,2.5,Calm,Calm,-,0.01,,Overcast,0,2012-11-07 09:53:00
5:23 AM,41.0,39.2,93,29.88,2.5,Calm,Calm,-,N/A,,Overcast,0,2012-11-07 10:23:00
5:53 AM,39.9,39.0,97,29.90,2.5,Calm,Calm,-,0.00,Rain,Light Rain,0,2012-11-07 10:53:00
6:03 AM,41.0,37.4,87,29.89,3.0,Calm,Calm,-,0.00,Rain,Light Rain,0,2012-11-07 11:03:00
6:24 AM,41.0,39.2,93,29.89,2.5,Calm,Calm,-,0.00,,Overcast,0,2012-11-07 11:24:00
6:50 AM,41.0,39.2,93,29.90,2.5,Calm,Calm,-,0.00,Rain,Light Rain,0,2012-11-07 11:50:00
6:53 AM,41.0,39.0,93,29.91,2.5,Calm,Calm,-,0.00,Rain,Light Rain,0,2012-11-07 11:53:00
7:22 AM,41.0,39.2,93,29.91,2.5,Calm,Calm,-,0.00,,Overcast,0,2012-11-07 12:22:00
7:31 AM,41.0,39.2,93,29.91,3.0,Calm,Calm,-,0.00,Rain,Light Rain,0,2012-11-07 12:31:00
7:35 AM,41.0,39.2,93,29.91,2.5,Calm,Calm,-,0.01,Rain,Light Rain,0,2012-11-07 12:35:00
7:45 AM,41.0,39.2,93,29.92,1.8,Calm,Calm,-,0.01,Rain,Light Rain,0,2012-11-07 12:45:00
7:53 AM,41.0,39.0,93,29.93,1.5,ENE,3.5,-,0.01,,Overcast,60,2012-11-07 12:53:00
8:03 AM,41.0,39.2,93,29.92,2.0,ENE,3.5,-,0.00,Rain,Light Rain,60,2012-11-07 13:03:00
8:53 AM,41.0,39.0,93,29.96,2.5,NE,4.6,-,0.00,,Overcast,50,2012-11-07 13:53:00
9:15 AM,41.0,39.2,93,29.96,3.0,ENE,5.8,-,0.00,Rain,Light Rain,60,2012-11-07 14:15:00
9:34 AM,42.8,39.2,87,29.96,2.5,NE,3.5,-,0.00,Rain,Light Rain,50,2012-11-07 14:34:00
9:41 AM,42.8,39.2,87,29.96,3.0,NE,4.6,-,0.00,Rain,Light Rain,50,2012-11-07 14:41:00
9:50 AM,42.8,39.2,87,29.96,2.5,NE,5.8,-,0.00,Rain,Light Rain,50,2012-11-07 14:50:00
9:53 AM,42.1,39.0,89,29.98,2.5,NE,4.6,-,0.00,Rain,Light Rain,50,2012-11-07 14:53:00
10:00 AM,42.8,39.2,87,29.97,3.0,NE,6.9,-,0.00,Rain,Light Rain,50,2012-11-07 15:00:00
10:23 AM,42.8,39.2,87,29.98,3.0,ENE,6.9,-,0.01,,Overcast,60,2012-11-07 15:23:00
10:53 AM,43.0,39.0,86,30.00,4.0,ENE,4.6,-,0.01,,Overcast,70,2012-11-07 15:53:00
11:09 AM,44.6,39.2,81,30.00,5.0,ENE,5.8,-,N/A,,Overcast,70,2012-11-07 16:09:00
11:28 AM,44.6,39.2,81,30.00,6.0,ENE,6.9,-,N/A,,Haze,60,2012-11-07 16:28:00
11:53 AM,44.1,39.0,82,30.01,6.0,ESE,4.6,-,N/A,,Haze,110,2012-11-07 16:53:00
12:53 PM,45.0,37.9,76,30.00,8.0,Calm,Calm,-,N/A,,Overcast,0,2012-11-07 17:53:00
1:53 PM,46.0,39.0,76,30.01,8.0,North,4.6,-,N/A,,Overcast,360,2012-11-07 18:53:00
2:06 PM,46.4,39.2,76,30.00,9.0,NNW,3.5,-,N/A,,Overcast,330,2012-11-07 19:06:00
2:53 PM,46.0,39.0,76,30.02,8.0,North,6.9,-,N/A,,Overcast,10,2012-11-07 19:53:00
3:35 PM,46.4,39.2,76,30.01,8.0,Variable,4.6,-,N/A,,Overcast,0,2012-11-07 20:35:00
3:53 PM,46.0,39.0,76,30.03,8.0,Calm,Calm,-,N/A,,Overcast,0,2012-11-07 20:53:00
4:53 PM,46.0,37.9,73,30.06,10.0,NNW,3.5,-,N/A,,Overcast,330,2012-11-07 21:53:00
6:53 PM,45.0,37.9,76,30.10,10.0,WNW,4.6,-,N/A,,Overcast,300,2012-11-07 23:53:00
7:53 PM,39.9,36.0,86,30.12,9.0,Calm,Calm,-,N/A,,Clear,0,2012-11-08 00:53:00
8:53 PM,37.0,35.1,93,30.12,5.0,Calm,Calm,-,N/A,,Clear,0,2012-11-08 01:53:00
9:53 PM,37.9,35.1,89,30.14,4.0,Calm,Calm,-,N/A,,Clear,0,2012-11-08 02:53:00
10:27 PM,37.4,35.6,93,30.13,2.5,Calm,Calm,-,N/A,,Clear,0,2012-11-08 03:27:00
10:34 PM,37.4,35.6,93,30.13,3.0,Calm,Calm,-,N/A,,Clear,0,2012-11-08 03:34:00
10:53 PM,37.0,36.0,96,30.15,3.0,Calm,Calm,-,N/A,,Clear,0,2012-11-08 03:53:00
11:23 PM,35.6,35.6,100,30.14,2.5,Calm,Calm,-,N/A,,Clear,0,2012-11-08 04:23:00
11:41 PM,33.8,32.0,93,30.14,1.0,Calm,Calm,-,N/A,,Clear,0,2012-11-08 04:41:00
11:53 PM,32.0,30.9,96,30.16,1.5,Calm,Calm,-,N/A,,Clear,0,2012-11-08 04:53:00